Meroa, Iowa
Current Conditions -  °F | °C
As of 5:55 PM on Wednesday 26 Nov 2014 (Local Time) from KCCY Reporting Station
Light Snow Light Snow  
Wind Chill: 19°   Ceiling: 2500
Heat Index: 25°   Visibility: 3mi
Dew Point: 23°   Wind: 5mph
Humidity: 93%   Direction: 10°N
Pressure: 30.21"   Gusts: NA
Location:  43.2938°N, 92.8135°W
Report Text: KCCY 262355Z AUTO 01004KT 3SM -SN SCT004 BKN025 OVC044 M04/M05 A3021 RMK AO2
Loading
Personal Weather Stations






























Interactive Weather Map New forecast layout! Learn more

10-Day Weather Forecast

Advertisements
Track Severe Weather on mobile